Ever Diamond — 3FQS8 — position and weather

sailwx.info

Track history (hours):
 
Tides and Currents Weather Stations Pressure Air Temp Water Temp Dewpoint Dewpoint Depression Visibility Wind Speed Wind Dir Waves Ship Positions

Ever Diamond

Last reported at 2017-Jul-25 05:24 UTC. Time now 2017-Jul-28 08:36 UTC.
Position N 01°18' E 103°19'.

Type: Ship (hazmat cat D). MMSI: 354893000.

Date/timePositionNaut miles runAvg speedWind from/ knotsBaromVisibWave heightAir tempDewpointWater temp
2017-Jul-25 05:24N 01°18' E 103°19'512.5
2017-Jul-25 05:00N 01°15' E 103°23'612.2
2017-Jul-25 04:30N 01°13' E 103°28'612.9
2017-Jul-25 04:00N 01°12' E 103°35'510.6
2017-Jul-25 03:30N 01°12' E 103°40'611.6
2017-Jul-25 03:00N 01°16' E 103°45'2 4.3
2017-Jul-25 02:26N 01°16' E 103°47'0 0.3
2017-Jul-25 01:59N 01°16' E 103°47'0 0.1
2017-Jul-25 01:29N 01°16' E 103°47'0 0.0
2017-Jul-25 00:59N 01°16' E 103°47'0 0.0
2017-Jul-25 00:29N 01°16' E 103°47'0 0.0
2017-Jul-24 23:59N 01°16' E 103°47'0 0.0
2017-Jul-24 23:29N 01°16' E 103°47'0 0.0
2017-Jul-24 22:59N 01°16' E 103°47'0 0.0
2017-Jul-24 22:29N 01°16' E 103°47'0 0.0
2017-Jul-24 21:59N 01°16' E 103°47'0 0.0
2017-Jul-24 21:29N 01°16' E 103°47'0 0.0
2017-Jul-24 20:59N 01°16' E 103°47'0 0.0
2017-Jul-24 20:29N 01°16' E 103°47'0 0.0
2017-Jul-24 19:59N 01°16' E 103°47'0 0.0
2017-Jul-24 19:29N 01°16' E 103°47'0 0.0
2017-Jul-24 18:59N 01°16' E 103°47'0 0.0
2017-Jul-24 18:26N 01°16' E 103°47'0 0.0
2017-Jul-24 17:50N 01°16' E 103°47'0 0.0
2017-Jul-24 17:26N 01°16' E 103°47'0 0.0
2017-Jul-24 16:59N 01°16' E 103°47'0 0.0
2017-Jul-24 16:29N 01°16' E 103°47'0 0.0
2017-Jul-24 15:56N 01°16' E 103°47'0 0.0
2017-Jul-24 12:58N 01°16' E 103°47'0 0.0
2017-Jul-24 12:28N 01°16' E 103°47'0 0.0
2017-Jul-24 11:59N 01°16' E 103°47'0 0.3
2017-Jul-24 11:30N 01°16' E 103°47'1 2.9
2017-Jul-24 11:00N 01°15' E 103°47'4 7.4
2017-Jul-24 10:30N 01°12' E 103°50'4 8.2
2017-Jul-24 10:00N 01°13' E 103°53'3 5.9
2017-Jul-24 09:30N 01°14' E 103°56'4 7.2
2017-Jul-24 08:58N 01°16' E 104°00'4 7.6
2017-Jul-24 08:29N 01°16' E 104°04'  
2017-Jul-18 12:55N 01°15' E 104°10'613.8
2017-Jul-18 12:30N 01°15' E 104°04'714.7
2017-Jul-18 12:00N 01°14' E 103°57'713.8
2017-Jul-18 11:30N 01°11' E 103°51'5 9.0
2017-Jul-18 11:00N 01°14' E 103°47'2 2.9
2017-Jul-18 10:28N 01°15' E 103°47'0 0.0
2017-Jul-18 09:58N 01°15' E 103°47'0 0.0
2017-Jul-18 09:25N 01°15' E 103°47'0 0.0
2017-Jul-18 08:58N 01°15' E 103°47'0 0.0
2017-Jul-18 08:28N 01°15' E 103°47'0 0.0
2017-Jul-18 07:58N 01°15' E 103°47'0 0.0
2017-Jul-18 07:28N 01°15' E 103°47'0 0.0
2017-Jul-18 06:58N 01°15' E 103°47'0 0.0
2017-Jul-18 06:28N 01°15' E 103°47'0 0.0
2017-Jul-18 05:58N 01°15' E 103°47'0 0.0
2017-Jul-18 05:28N 01°15' E 103°47'0 0.0
2017-Jul-18 04:58N 01°15' E 103°47'0 0.0
2017-Jul-18 04:28N 01°15' E 103°47'0 0.0
2017-Jul-18 03:55N 01°15' E 103°47'0 0.0
2017-Jul-18 03:28N 01°15' E 103°47'0 0.0
2017-Jul-18 02:58N 01°15' E 103°47'0 0.0
2017-Jul-18 02:28N 01°15' E 103°47'0 0.0
2017-Jul-18 01:58N 01°15' E 103°47'0 0.0
2017-Jul-18 01:28N 01°15' E 103°47'0 0.0
2017-Jul-18 00:58N 01°15' E 103°47'0 0.0
2017-Jul-18 00:28N 01°15' E 103°47'0 0.0
2017-Jul-17 23:59N 01°15' E 103°47'1 3.1
2017-Jul-17 23:30N 01°15' E 103°46'510.0
2017-Jul-17 23:00N 01°13' E 103°41'5 9.6
2017-Jul-17 22:30N 01°12' E 103°36'3 6.7
2017-Jul-17 22:00N 01°11' E 103°33'3 6.3
2017-Jul-17 21:30N 01°10' E 103°30'3 6.1
2017-Jul-17 21:00N 01°11' E 103°27'612.8
2017-Jul-17 20:30N 01°15' E 103°22'247 5.6
2017-Jul-16 00:30N 03°38' E 100°00'  
Track history (hours):
 
Tides and Currents Weather Stations Pressure Air Temp Water Temp Dewpoint Dewpoint Depression Visibility Wind Speed Wind Dir Waves Ship Positions

Ever Diamond

Last reported at 2017-Jul-25 05:24 UTC. Time now 2017-Jul-28 08:36 UTC.
Position N 01°18' E 103°19'.

Type: Ship (hazmat cat D). MMSI: 354893000.

Date/timePositionNaut miles runAvg speedWind from/ knotsBaromVisibWave heightAir tempDewpointWater temp
2017-Jul-25 05:24N 01°18' E 103°19'512.5
2017-Jul-25 05:00N 01°15' E 103°23'612.2
2017-Jul-25 04:30N 01°13' E 103°28'612.9
2017-Jul-25 04:00N 01°12' E 103°35'510.6
2017-Jul-25 03:30N 01°12' E 103°40'611.6
2017-Jul-25 03:00N 01°16' E 103°45'2 4.3
2017-Jul-25 02:26N 01°16' E 103°47'0 0.3
2017-Jul-25 01:59N 01°16' E 103°47'0 0.1
2017-Jul-25 01:29N 01°16' E 103°47'0 0.0
2017-Jul-25 00:59N 01°16' E 103°47'0 0.0
2017-Jul-25 00:29N 01°16' E 103°47'0 0.0
2017-Jul-24 23:59N 01°16' E 103°47'0 0.0
2017-Jul-24 23:29N 01°16' E 103°47'0 0.0
2017-Jul-24 22:59N 01°16' E 103°47'0 0.0
2017-Jul-24 22:29N 01°16' E 103°47'0 0.0
2017-Jul-24 21:59N 01°16' E 103°47'0 0.0
2017-Jul-24 21:29N 01°16' E 103°47'0 0.0
2017-Jul-24 20:59N 01°16' E 103°47'0 0.0
2017-Jul-24 20:29N 01°16' E 103°47'0 0.0
2017-Jul-24 19:59N 01°16' E 103°47'0 0.0
2017-Jul-24 19:29N 01°16' E 103°47'0 0.0
2017-Jul-24 18:59N 01°16' E 103°47'0 0.0
2017-Jul-24 18:26N 01°16' E 103°47'0 0.0
2017-Jul-24 17:50N 01°16' E 103°47'0 0.0
2017-Jul-24 17:26N 01°16' E 103°47'0 0.0
2017-Jul-24 16:59N 01°16' E 103°47'0 0.0
2017-Jul-24 16:29N 01°16' E 103°47'0 0.0
2017-Jul-24 15:56N 01°16' E 103°47'0 0.0
2017-Jul-24 12:58N 01°16' E 103°47'0 0.0
2017-Jul-24 12:28N 01°16' E 103°47'0 0.0
2017-Jul-24 11:59N 01°16' E 103°47'0 0.3
2017-Jul-24 11:30N 01°16' E 103°47'1 2.9
2017-Jul-24 11:00N 01°15' E 103°47'4 7.4
2017-Jul-24 10:30N 01°12' E 103°50'4 8.2
2017-Jul-24 10:00N 01°13' E 103°53'3 5.9
2017-Jul-24 09:30N 01°14' E 103°56'4 7.2
2017-Jul-24 08:58N 01°16' E 104°00'4 7.6
2017-Jul-24 08:29N 01°16' E 104°04'  
2017-Jul-18 12:55N 01°15' E 104°10'613.8
2017-Jul-18 12:30N 01°15' E 104°04'714.7
2017-Jul-18 12:00N 01°14' E 103°57'713.8
2017-Jul-18 11:30N 01°11' E 103°51'5 9.0
2017-Jul-18 11:00N 01°14' E 103°47'2 2.9
2017-Jul-18 10:28N 01°15' E 103°47'0 0.0
2017-Jul-18 09:58N 01°15' E 103°47'0 0.0
2017-Jul-18 09:25N 01°15' E 103°47'0 0.0
2017-Jul-18 08:58N 01°15' E 103°47'0 0.0
2017-Jul-18 08:28N 01°15' E 103°47'0 0.0
2017-Jul-18 07:58N 01°15' E 103°47'0 0.0
2017-Jul-18 07:28N 01°15' E 103°47'0 0.0
2017-Jul-18 06:58N 01°15' E 103°47'0 0.0
2017-Jul-18 06:28N 01°15' E 103°47'0 0.0
2017-Jul-18 05:58N 01°15' E 103°47'0 0.0
2017-Jul-18 05:28N 01°15' E 103°47'0 0.0
2017-Jul-18 04:58N 01°15' E 103°47'0 0.0
2017-Jul-18 04:28N 01°15' E 103°47'0 0.0
2017-Jul-18 03:55N 01°15' E 103°47'0 0.0
2017-Jul-18 03:28N 01°15' E 103°47'0 0.0
2017-Jul-18 02:58N 01°15' E 103°47'0 0.0
2017-Jul-18 02:28N 01°15' E 103°47'0 0.0
2017-Jul-18 01:58N 01°15' E 103°47'0 0.0
2017-Jul-18 01:28N 01°15' E 103°47'0 0.0
2017-Jul-18 00:58N 01°15' E 103°47'0 0.0
2017-Jul-18 00:28N 01°15' E 103°47'0 0.0
2017-Jul-17 23:59N 01°15' E 103°47'1 3.1
2017-Jul-17 23:30N 01°15' E 103°46'510.0
2017-Jul-17 23:00N 01°13' E 103°41'5 9.6
2017-Jul-17 22:30N 01°12' E 103°36'3 6.7
2017-Jul-17 22:00N 01°11' E 103°33'3 6.3
2017-Jul-17 21:30N 01°10' E 103°30'3 6.1
2017-Jul-17 21:00N 01°11' E 103°27'612.8
2017-Jul-17 20:30N 01°15' E 103°22'247 5.6
2017-Jul-16 00:30N 03°38' E 100°00'  

Dump ship's entire track history